Geneva, TX

9:16 PM CST on February 09, 2016 (GMT -0600)
Toledo Bend | | Change Station
CLOSE
Current Station
Personal Weather Station
Location: Toledo Bend, LA
Elevation: 197 ft
Nearby Weather Stations

Elev 197 ft 31.51 °N, 93.70 °W | Updated 15 seconds ago

Clear
Clear
50.7 °F
Feels Like 50.7 °F
N
0.0
Wind Variable Wind from WSW
Gusts 0.0 mph

Today
High -- | Low -- °F
--% Chance of Precip.
Yesterday
High -- | Low -- °F
Precip. -- in
Pressure 30.22 in
Visibility 10.0 miles
Clouds Clear
Dew Point 31 °F
Humidity 47%
Rainfall 0.00 in
Snow Depth Not available.
7:02 AM 5:57 PM
Waxing Crescent, 3% visible
METAR KAQV 100256Z AUTO 00000KT 10SM CLR 07/M03 A3021 RMK AO2 SLP231 T00721028 51022
Pressure 30.22 in
Visibility 10.0 miles
Clouds Clear
Dew Point 31 °F
Humidity 47%
Rainfall 0.00 in
Snow Depth Not available.
7:02 AM 5:57 PM
Waxing Crescent, 3% visible
METAR KAQV 100256Z AUTO 00000KT 10SM CLR 07/M03 A3021 RMK AO2 SLP231 T00721028 51022

10-Day Weather Forecast

Almanac

Astronomy

Feb. 09, 2016 Rise Set
Actual Time
Civil Twilight
Nautical Twilight
Astronomical Twilight
Moon
Length of Visible Light
Length of Day
Tomorrow will be .
, % of the Moon is Illuminated

Today's Extremes

State Highs State Lows

Community

WunderPhotos

Upload Photos

1,891,788 photos uploaded!

WunderBlog® & News

Nearby

Air Quality

  Air Quality AQ Index Pollutant
Not available.

Snow Depth

Station Depth Elevation

Earthquake Activity

City Distance Mag. Time & Date
Minimum magnitude displayed is 2.5.

Coastal Water Temperatures

Place Temperature

Stations

Nearby Weather Stations

Station Location Temp. Windchill Dew Point Humidity Wind Precip. Elev Updated Type
                   

Watches & Warnings

There are currently no watches in effect.